sensor_id;sensor_type;location;lat;lon;timestamp;P1;durP1;ratioP1;P2;durP2;ratioP2
20972;SDS011;10645;52.370;13.314;2023-06-26T00:00:22;4.50;;;4.10;;
20972;SDS011;10645;52.370;13.314;2023-06-26T00:02:49;4.40;;;4.00;;
20972;SDS011;10645;52.370;13.314;2023-06-26T00:05:15;5.57;;;5.05;;
20972;SDS011;10645;52.370;13.314;2023-06-26T00:07:41;4.63;;;4.15;;
20972;SDS011;10645;52.370;13.314;2023-06-26T00:10:07;7.28;;;5.72;;
20972;SDS011;10645;52.370;13.314;2023-06-26T00:12:33;6.10;;;4.88;;
20972;SDS011;10645;52.370;13.314;2023-06-26T00:14:59;4.95;;;4.38;;
20972;SDS011;10645;52.370;13.314;2023-06-26T00:17:26;4.72;;;4.35;;
20972;SDS011;10645;52.370;13.314;2023-06-26T00:19:52;4.13;;;3.72;;
20972;SDS011;10645;52.370;13.314;2023-06-26T00:22:18;6.13;;;4.82;;
20972;SDS011;10645;52.370;13.314;2023-06-26T00:24:44;5.70;;;4.20;;
20972;SDS011;10645;52.370;13.314;2023-06-26T00:27:10;4.25;;;3.63;;
20972;SDS011;10645;52.370;13.314;2023-06-26T00:29:36;4.60;;;3.75;;
20972;SDS011;10645;52.370;13.314;2023-06-26T00:32:04;4.82;;;4.40;;
20972;SDS011;10645;52.370;13.314;2023-06-26T00:34:32;4.43;;;3.47;;
20972;SDS011;10645;52.370;13.314;2023-06-26T00:36:58;5.32;;;4.82;;
20972;SDS011;10645;52.370;13.314;2023-06-26T00:39:25;4.50;;;3.65;;
20972;SDS011;10645;52.370;13.314;2023-06-26T00:41:51;3.75;;;3.45;;
20972;SDS011;10645;52.370;13.314;2023-06-26T00:44:20;4.72;;;4.22;;
20972;SDS011;10645;52.370;13.314;2023-06-26T00:46:46;3.72;;;3.17;;
20972;SDS011;10645;52.370;13.314;2023-06-26T00:49:12;3.72;;;3.13;;
20972;SDS011;10645;52.370;13.314;2023-06-26T00:51:39;4.65;;;3.72;;
20972;SDS011;10645;52.370;13.314;2023-06-26T00:54:05;8.38;;;4.60;;
20972;SDS011;10645;52.370;13.314;2023-06-26T00:56:32;3.70;;;3.38;;
20972;SDS011;10645;52.370;13.314;2023-06-26T00:58:58;3.92;;;3.58;;
20972;SDS011;10645;52.370;13.314;2023-06-26T01:01:26;4.25;;;3.95;;
20972;SDS011;10645;52.370;13.314;2023-06-26T01:03:52;3.90;;;3.63;;
20972;SDS011;10645;52.370;13.314;2023-06-26T01:06:23;3.80;;;3.50;;
20972;SDS011;10645;52.370;13.314;2023-06-26T01:08:51;4.35;;;3.80;;
20972;SDS011;10645;52.370;13.314;2023-06-26T01:11:17;5.50;;;4.70;;
20972;SDS011;10645;52.370;13.314;2023-06-26T01:13:44;5.03;;;4.00;;
20972;SDS011;10645;52.370;13.314;2023-06-26T01:16:11;6.30;;;4.32;;
20972;SDS011;10645;52.370;13.314;2023-06-26T01:18:38;4.55;;;4.15;;
20972;SDS011;10645;52.370;13.314;2023-06-26T01:21:07;6.65;;;4.88;;
20972;SDS011;10645;52.370;13.314;2023-06-26T01:23:37;5.68;;;4.55;;
20972;SDS011;10645;52.370;13.314;2023-06-26T01:26:19;6.38;;;4.60;;
20972;SDS011;10645;52.370;13.314;2023-06-26T01:28:47;5.72;;;4.28;;
20972;SDS011;10645;52.370;13.314;2023-06-26T01:31:15;3.85;;;3.55;;
20972;SDS011;10645;52.370;13.314;2023-06-26T01:33:42;5.65;;;5.25;;
20972;SDS011;10645;52.370;13.314;2023-06-26T01:36:09;4.05;;;3.70;;
20972;SDS011;10645;52.370;13.314;2023-06-26T01:38:36;5.18;;;3.90;;
20972;SDS011;10645;52.370;13.314;2023-06-26T01:41:02;3.88;;;3.58;;
20972;SDS011;10645;52.370;13.314;2023-06-26T01:43:41;4.35;;;3.67;;
20972;SDS011;10645;52.370;13.314;2023-06-26T01:46:42;3.80;;;3.45;;
20972;SDS011;10645;52.370;13.314;2023-06-26T01:49:15;3.75;;;3.47;;
20972;SDS011;10645;52.370;13.314;2023-06-26T01:51:46;4.38;;;3.97;;
20972;SDS011;10645;52.370;13.314;2023-06-26T01:54:33;6.22;;;4.05;;
20972;SDS011;10645;52.370;13.314;2023-06-26T01:57:03;4.22;;;3.88;;
20972;SDS011;10645;52.370;13.314;2023-06-26T01:59:31;5.22;;;4.43;;
20972;SDS011;10645;52.370;13.314;2023-06-26T02:02:00;5.80;;;4.38;;
20972;SDS011;10645;52.370;13.314;2023-06-26T02:04:27;6.20;;;4.82;;
20972;SDS011;10645;52.370;13.314;2023-06-26T02:06:53;4.40;;;3.65;;
20972;SDS011;10645;52.370;13.314;2023-06-26T02:09:20;4.30;;;3.90;;
20972;SDS011;10645;52.370;13.314;2023-06-26T02:11:46;3.97;;;3.58;;
20972;SDS011;10645;52.370;13.314;2023-06-26T02:14:12;4.32;;;3.85;;
20972;SDS011;10645;52.370;13.314;2023-06-26T02:16:38;4.45;;;3.15;;
20972;SDS011;10645;52.370;13.314;2023-06-26T02:19:06;5.03;;;4.57;;
20972;SDS011;10645;52.370;13.314;2023-06-26T02:21:32;4.55;;;4.15;;
20972;SDS011;10645;52.370;13.314;2023-06-26T02:23:58;4.20;;;3.85;;
20972;SDS011;10645;52.370;13.314;2023-06-26T02:26:24;4.47;;;3.95;;
20972;SDS011;10645;52.370;13.314;2023-06-26T02:28:50;5.53;;;3.75;;
20972;SDS011;10645;52.370;13.314;2023-06-26T02:31:16;4.80;;;4.38;;
20972;SDS011;10645;52.370;13.314;2023-06-26T02:33:42;5.15;;;3.65;;
20972;SDS011;10645;52.370;13.314;2023-06-26T02:36:10;4.55;;;4.07;;
20972;SDS011;10645;52.370;13.314;2023-06-26T02:38:39;5.03;;;4.53;;
20972;SDS011;10645;52.370;13.314;2023-06-26T02:41:05;5.00;;;4.13;;
20972;SDS011;10645;52.370;13.314;2023-06-26T02:43:31;3.97;;;3.65;;
20972;SDS011;10645;52.370;13.314;2023-06-26T02:45:57;3.90;;;3.10;;
20972;SDS011;10645;52.370;13.314;2023-06-26T02:48:23;4.35;;;3.72;;
20972;SDS011;10645;52.370;13.314;2023-06-26T02:50:49;3.85;;;3.53;;
20972;SDS011;10645;52.370;13.314;2023-06-26T02:53:15;4.45;;;4.03;;
20972;SDS011;10645;52.370;13.314;2023-06-26T02:55:44;5.00;;;3.97;;
20972;SDS011;10645;52.370;13.314;2023-06-26T02:58:13;5.93;;;5.25;;
20972;SDS011;10645;52.370;13.314;2023-06-26T03:00:39;4.13;;;3.83;;
20972;SDS011;10645;52.370;13.314;2023-06-26T03:03:09;8.35;;;5.55;;
20972;SDS011;10645;52.370;13.314;2023-06-26T03:05:35;10.60;;;5.18;;
20972;SDS011;10645;52.370;13.314;2023-06-26T03:08:02;4.57;;;4.18;;
20972;SDS011;10645;52.370;13.314;2023-06-26T03:10:28;4.40;;;3.75;;
20972;SDS011;10645;52.370;13.314;2023-06-26T03:12:55;5.50;;;4.55;;
20972;SDS011;10645;52.370;13.314;2023-06-26T03:15:21;4.40;;;3.75;;
20972;SDS011;10645;52.370;13.314;2023-06-26T03:17:47;6.57;;;4.30;;
20972;SDS011;10645;52.370;13.314;2023-06-26T03:20:20;4.55;;;4.15;;
20972;SDS011;10645;52.370;13.314;2023-06-26T03:22:49;5.15;;;4.60;;
20972;SDS011;10645;52.370;13.314;2023-06-26T03:25:16;4.03;;;3.63;;
20972;SDS011;10645;52.370;13.314;2023-06-26T03:27:43;4.47;;;4.07;;
20972;SDS011;10645;52.370;13.314;2023-06-26T03:30:09;4.30;;;3.90;;
20972;SDS011;10645;52.370;13.314;2023-06-26T03:32:38;5.10;;;3.78;;
20972;SDS011;10645;52.370;13.314;2023-06-26T03:35:05;4.80;;;3.60;;
20972;SDS011;10645;52.370;13.314;2023-06-26T03:37:32;5.45;;;3.88;;
20972;SDS011;10645;52.370;13.314;2023-06-26T03:39:58;8.65;;;5.32;;
20972;SDS011;10645;52.370;13.314;2023-06-26T03:42:24;5.22;;;4.55;;
20972;SDS011;10645;52.370;13.314;2023-06-26T03:44:50;5.57;;;4.40;;
20972;SDS011;10645;52.370;13.314;2023-06-26T03:47:18;6.53;;;5.93;;
20972;SDS011;10645;52.370;13.314;2023-06-26T03:49:44;6.35;;;5.43;;
20972;SDS011;10645;52.370;13.314;2023-06-26T03:52:10;6.88;;;6.18;;
20972;SDS011;10645;52.370;13.314;2023-06-26T03:54:38;5.65;;;5.15;;
20972;SDS011;10645;52.370;13.314;2023-06-26T03:57:04;6.45;;;5.85;;
20972;SDS011;10645;52.370;13.314;2023-06-26T03:59:31;6.90;;;6.32;;
20972;SDS011;10645;52.370;13.314;2023-06-26T04:01:57;5.63;;;4.78;;
20972;SDS011;10645;52.370;13.314;2023-06-26T04:04:24;6.43;;;5.82;;
20972;SDS011;10645;52.370;13.314;2023-06-26T04:06:50;6.80;;;6.18;;
20972;SDS011;10645;52.370;13.314;2023-06-26T04:09:16;5.00;;;4.53;;
20972;SDS011;10645;52.370;13.314;2023-06-26T04:11:43;12.93;;;7.10;;
20972;SDS011;10645;52.370;13.314;2023-06-26T04:14:09;6.18;;;5.50;;
20972;SDS011;10645;52.370;13.314;2023-06-26T04:16:36;6.78;;;6.05;;
20972;SDS011;10645;52.370;13.314;2023-06-26T04:19:02;5.35;;;4.43;;
20972;SDS011;10645;52.370;13.314;2023-06-26T04:21:30;6.07;;;5.38;;
20972;SDS011;10645;52.370;13.314;2023-06-26T04:23:56;7.10;;;5.82;;
20972;SDS011;10645;52.370;13.314;2023-06-26T04:26:22;6.93;;;5.93;;
20972;SDS011;10645;52.370;13.314;2023-06-26T04:28:48;5.88;;;5.20;;
20972;SDS011;10645;52.370;13.314;2023-06-26T04:31:14;9.00;;;6.95;;
20972;SDS011;10645;52.370;13.314;2023-06-26T04:33:40;7.15;;;6.38;;
20972;SDS011;10645;52.370;13.314;2023-06-26T04:36:06;7.40;;;6.55;;
20972;SDS011;10645;52.370;13.314;2023-06-26T04:38:32;6.47;;;5.93;;
20972;SDS011;10645;52.370;13.314;2023-06-26T04:40:59;5.70;;;5.20;;
20972;SDS011;10645;52.370;13.314;2023-06-26T04:43:26;6.97;;;6.38;;
20972;SDS011;10645;52.370;13.314;2023-06-26T04:45:52;7.75;;;7.15;;
20972;SDS011;10645;52.370;13.314;2023-06-26T04:48:18;6.90;;;5.68;;
20972;SDS011;10645;52.370;13.314;2023-06-26T04:50:44;10.02;;;7.10;;
20972;SDS011;10645;52.370;13.314;2023-06-26T04:53:18;8.50;;;6.03;;
20972;SDS011;10645;52.370;13.314;2023-06-26T04:55:44;8.93;;;8.13;;
20972;SDS011;10645;52.370;13.314;2023-06-26T04:58:10;9.88;;;7.80;;
20972;SDS011;10645;52.370;13.314;2023-06-26T05:00:36;9.98;;;9.05;;
20972;SDS011;10645;52.370;13.314;2023-06-26T05:03:02;9.82;;;8.38;;
20972;SDS011;10645;52.370;13.314;2023-06-26T05:05:29;9.07;;;7.65;;
20972;SDS011;10645;52.370;13.314;2023-06-26T05:07:55;7.80;;;6.72;;
20972;SDS011;10645;52.370;13.314;2023-06-26T05:10:22;8.38;;;7.68;;
20972;SDS011;10645;52.370;13.314;2023-06-26T05:12:48;8.25;;;7.43;;
20972;SDS011;10645;52.370;13.314;2023-06-26T05:15:14;8.52;;;7.13;;
20972;SDS011;10645;52.370;13.314;2023-06-26T05:17:40;6.95;;;6.25;;
20972;SDS011;10645;52.370;13.314;2023-06-26T05:20:06;7.18;;;6.00;;
20972;SDS011;10645;52.370;13.314;2023-06-26T05:22:33;8.40;;;7.32;;
20972;SDS011;10645;52.370;13.314;2023-06-26T05:25:00;10.30;;;9.38;;
20972;SDS011;10645;52.370;13.314;2023-06-26T05:27:29;8.23;;;7.10;;
20972;SDS011;10645;52.370;13.314;2023-06-26T05:29:55;6.95;;;6.28;;
20972;SDS011;10645;52.370;13.314;2023-06-26T05:32:21;8.25;;;7.55;;
20972;SDS011;10645;52.370;13.314;2023-06-26T05:34:48;9.05;;;8.15;;
20972;SDS011;10645;52.370;13.314;2023-06-26T05:37:16;11.13;;;8.73;;
20972;SDS011;10645;52.370;13.314;2023-06-26T05:39:46;8.45;;;7.75;;
20972;SDS011;10645;52.370;13.314;2023-06-26T05:42:12;7.03;;;6.35;;
20972;SDS011;10645;52.370;13.314;2023-06-26T05:44:39;8.27;;;7.35;;
20972;SDS011;10645;52.370;13.314;2023-06-26T05:47:05;8.45;;;7.45;;
20972;SDS011;10645;52.370;13.314;2023-06-26T05:49:31;8.75;;;6.95;;
20972;SDS011;10645;52.370;13.314;2023-06-26T05:51:57;7.90;;;6.72;;
20972;SDS011;10645;52.370;13.314;2023-06-26T05:54:23;6.70;;;6.00;;
20972;SDS011;10645;52.370;13.314;2023-06-26T05:56:51;6.20;;;5.68;;
20972;SDS011;10645;52.370;13.314;2023-06-26T05:59:21;9.35;;;6.32;;
20972;SDS011;10645;52.370;13.314;2023-06-26T06:01:48;7.20;;;6.53;;
20972;SDS011;10645;52.370;13.314;2023-06-26T06:04:14;9.18;;;6.75;;
20972;SDS011;10645;52.370;13.314;2023-06-26T06:06:40;6.45;;;5.85;;
20972;SDS011;10645;52.370;13.314;2023-06-26T06:09:06;7.45;;;6.75;;
20972;SDS011;10645;52.370;13.314;2023-06-26T06:11:32;6.75;;;6.05;;
20972;SDS011;10645;52.370;13.314;2023-06-26T06:13:58;6.95;;;6.22;;
20972;SDS011;10645;52.370;13.314;2023-06-26T06:16:25;7.80;;;6.68;;
20972;SDS011;10645;52.370;13.314;2023-06-26T06:18:54;6.85;;;5.63;;
20972;SDS011;10645;52.370;13.314;2023-06-26T06:21:20;5.75;;;5.25;;
20972;SDS011;10645;52.370;13.314;2023-06-26T06:23:47;7.22;;;5.53;;
20972;SDS011;10645;52.370;13.314;2023-06-26T06:26:13;6.65;;;6.05;;
20972;SDS011;10645;52.370;13.314;2023-06-26T06:28:39;6.95;;;6.25;;
20972;SDS011;10645;52.370;13.314;2023-06-26T06:31:05;6.65;;;6.05;;
20972;SDS011;10645;52.370;13.314;2023-06-26T06:33:31;6.10;;;5.53;;
20972;SDS011;10645;52.370;13.314;2023-06-26T06:35:57;7.85;;;5.80;;
20972;SDS011;10645;52.370;13.314;2023-06-26T06:38:23;7.07;;;6.38;;
20972;SDS011;10645;52.370;13.314;2023-06-26T06:40:49;7.25;;;6.65;;
20972;SDS011;10645;52.370;13.314;2023-06-26T06:43:16;7.00;;;6.05;;
20972;SDS011;10645;52.370;13.314;2023-06-26T06:45:42;6.35;;;5.60;;
20972;SDS011;10645;52.370;13.314;2023-06-26T06:48:08;6.50;;;5.95;;
20972;SDS011;10645;52.370;13.314;2023-06-26T06:50:34;6.13;;;5.45;;
20972;SDS011;10645;52.370;13.314;2023-06-26T06:53:00;8.55;;;5.72;;
20972;SDS011;10645;52.370;13.314;2023-06-26T06:55:27;6.00;;;5.35;;
20972;SDS011;10645;52.370;13.314;2023-06-26T06:57:53;5.63;;;4.22;;
20972;SDS011;10645;52.370;13.314;2023-06-26T07:00:19;6.57;;;5.72;;
20972;SDS011;10645;52.370;13.314;2023-06-26T07:02:45;6.10;;;5.40;;
20972;SDS011;10645;52.370;13.314;2023-06-26T07:05:12;5.85;;;5.38;;
20972;SDS011;10645;52.370;13.314;2023-06-26T07:07:39;6.15;;;5.63;;
20972;SDS011;10645;52.370;13.314;2023-06-26T07:10:06;5.63;;;5.13;;
20972;SDS011;10645;52.370;13.314;2023-06-26T07:12:37;5.38;;;4.97;;
20972;SDS011;10645;52.370;13.314;2023-06-26T07:15:04;7.10;;;5.15;;
20972;SDS011;10645;52.370;13.314;2023-06-26T07:17:31;6.28;;;5.68;;
20972;SDS011;10645;52.370;13.314;2023-06-26T07:19:59;5.30;;;4.90;;
20972;SDS011;10645;52.370;13.314;2023-06-26T07:22:26;6.28;;;5.68;;
20972;SDS011;10645;52.370;13.314;2023-06-26T07:24:52;5.57;;;4.85;;
20972;SDS011;10645;52.370;13.314;2023-06-26T07:27:18;4.65;;;4.35;;
20972;SDS011;10645;52.370;13.314;2023-06-26T07:29:45;4.45;;;4.00;;
20972;SDS011;10645;52.370;13.314;2023-06-26T07:32:11;5.70;;;5.20;;
20972;SDS011;10645;52.370;13.314;2023-06-26T07:34:37;4.70;;;4.30;;
20972;SDS011;10645;52.370;13.314;2023-06-26T07:37:04;5.22;;;4.80;;
20972;SDS011;10645;52.370;13.314;2023-06-26T07:39:30;6.07;;;5.47;;
20972;SDS011;10645;52.370;13.314;2023-06-26T07:41:56;15.15;;;7.25;;
20972;SDS011;10645;52.370;13.314;2023-06-26T07:44:24;5.95;;;4.90;;
20972;SDS011;10645;52.370;13.314;2023-06-26T07:46:51;5.30;;;4.80;;
20972;SDS011;10645;52.370;13.314;2023-06-26T07:49:17;5.50;;;5.03;;
20972;SDS011;10645;52.370;13.314;2023-06-26T07:51:43;6.55;;;5.18;;
20972;SDS011;10645;52.370;13.314;2023-06-26T07:54:10;6.13;;;4.82;;
20972;SDS011;10645;52.370;13.314;2023-06-26T07:56:52;4.25;;;3.92;;
20972;SDS011;10645;52.370;13.314;2023-06-26T07:59:27;4.78;;;4.03;;
20972;SDS011;10645;52.370;13.314;2023-06-26T08:01:54;5.20;;;4.70;;
20972;SDS011;10645;52.370;13.314;2023-06-26T08:04:21;4.85;;;4.40;;
20972;SDS011;10645;52.370;13.314;2023-06-26T08:06:50;4.55;;;4.20;;
20972;SDS011;10645;52.370;13.314;2023-06-26T08:09:18;4.35;;;3.92;;
20972;SDS011;10645;52.370;13.314;2023-06-26T08:11:45;4.63;;;4.22;;
20972;SDS011;10645;52.370;13.314;2023-06-26T08:14:11;4.95;;;4.47;;
20972;SDS011;10645;52.370;13.314;2023-06-26T08:16:41;4.85;;;4.32;;
20972;SDS011;10645;52.370;13.314;2023-06-26T08:19:09;5.28;;;4.38;;
20972;SDS011;10645;52.370;13.314;2023-06-26T08:21:36;4.72;;;4.22;;
20972;SDS011;10645;52.370;13.314;2023-06-26T08:24:02;3.50;;;3.25;;
20972;SDS011;10645;52.370;13.314;2023-06-26T08:26:29;4.22;;;3.45;;
20972;SDS011;10645;52.370;13.314;2023-06-26T08:28:55;4.35;;;3.92;;
20972;SDS011;10645;52.370;13.314;2023-06-26T08:31:21;4.28;;;3.88;;
20972;SDS011;10645;52.370;13.314;2023-06-26T08:33:47;5.30;;;3.22;;
20972;SDS011;10645;52.370;13.314;2023-06-26T08:36:13;3.95;;;3.10;;
20972;SDS011;10645;52.370;13.314;2023-06-26T08:38:40;5.05;;;4.20;;
20972;SDS011;10645;52.370;13.314;2023-06-26T08:41:06;3.17;;;2.90;;
20972;SDS011;10645;52.370;13.314;2023-06-26T08:43:33;3.30;;;3.10;;
20972;SDS011;10645;52.370;13.314;2023-06-26T08:45:59;3.42;;;3.13;;
20972;SDS011;10645;52.370;13.314;2023-06-26T08:48:26;3.70;;;3.40;;
20972;SDS011;10645;52.370;13.314;2023-06-26T08:50:55;2.25;;;2.05;;
20972;SDS011;10645;52.370;13.314;2023-06-26T08:53:24;2.85;;;2.60;;
20972;SDS011;10645;52.370;13.314;2023-06-26T08:55:58;3.70;;;3.40;;
20972;SDS011;10645;52.370;13.314;2023-06-26T08:58:25;2.88;;;2.60;;
20972;SDS011;10645;52.370;13.314;2023-06-26T09:00:52;5.90;;;2.45;;
20972;SDS011;10645;52.370;13.314;2023-06-26T09:03:18;2.85;;;2.65;;
20972;SDS011;10645;52.370;13.314;2023-06-26T09:05:44;5.72;;;2.90;;
20972;SDS011;10645;52.370;13.314;2023-06-26T09:08:10;2.90;;;2.65;;
20972;SDS011;10645;52.370;13.314;2023-06-26T09:10:36;3.03;;;2.75;;
20972;SDS011;10645;52.370;13.314;2023-06-26T09:13:02;2.97;;;2.78;;
20972;SDS011;10645;52.370;13.314;2023-06-26T09:15:38;2.70;;;2.20;;
20972;SDS011;10645;52.370;13.314;2023-06-26T09:18:08;3.00;;;2.70;;
20972;SDS011;10645;52.370;13.314;2023-06-26T09:20:35;2.65;;;2.45;;
20972;SDS011;10645;52.370;13.314;2023-06-26T09:23:01;2.85;;;2.25;;
20972;SDS011;10645;52.370;13.314;2023-06-26T09:25:28;2.83;;;2.63;;
20972;SDS011;10645;52.370;13.314;2023-06-26T09:27:54;3.85;;;2.50;;
20972;SDS011;10645;52.370;13.314;2023-06-26T09:30:21;3.15;;;2.83;;
20972;SDS011;10645;52.370;13.314;2023-06-26T09:32:48;2.60;;;2.30;;
20972;SDS011;10645;52.370;13.314;2023-06-26T09:35:16;3.03;;;2.72;;
20972;SDS011;10645;52.370;13.314;2023-06-26T09:37:42;2.22;;;1.92;;
20972;SDS011;10645;52.370;13.314;2023-06-26T09:40:09;2.50;;;2.30;;
20972;SDS011;10645;52.370;13.314;2023-06-26T09:42:35;2.13;;;2.03;;
20972;SDS011;10645;52.370;13.314;2023-06-26T09:45:01;2.58;;;2.38;;
20972;SDS011;10645;52.370;13.314;2023-06-26T09:47:30;2.13;;;2.03;;
20972;SDS011;10645;52.370;13.314;2023-06-26T09:49:59;3.00;;;2.80;;
20972;SDS011;10645;52.370;13.314;2023-06-26T09:52:28;3.22;;;2.30;;
20972;SDS011;10645;52.370;13.314;2023-06-26T09:55:09;2.67;;;2.47;;
20972;SDS011;10645;52.370;13.314;2023-06-26T09:57:36;3.70;;;2.15;;
20972;SDS011;10645;52.370;13.314;2023-06-26T10:00:04;2.35;;;2.15;;
20972;SDS011;10645;52.370;13.314;2023-06-26T10:02:38;3.10;;;2.80;;
20972;SDS011;10645;52.370;13.314;2023-06-26T10:05:04;2.25;;;2.15;;
20972;SDS011;10645;52.370;13.314;2023-06-26T10:07:30;2.78;;;2.30;;
20972;SDS011;10645;52.370;13.314;2023-06-26T10:09:57;2.42;;;2.17;;
20972;SDS011;10645;52.370;13.314;2023-06-26T10:12:29;2.17;;;2.08;;
20972;SDS011;10645;52.370;13.314;2023-06-26T10:14:57;2.83;;;2.58;;
20972;SDS011;10645;52.370;13.314;2023-06-26T10:17:24;1.60;;;1.50;;
20972;SDS011;10645;52.370;13.314;2023-06-26T10:19:53;2.22;;;2.03;;
20972;SDS011;10645;52.370;13.314;2023-06-26T10:22:21;2.67;;;2.22;;
20972;SDS011;10645;52.370;13.314;2023-06-26T10:24:55;2.00;;;1.90;;
20972;SDS011;10645;52.370;13.314;2023-06-26T10:27:24;2.50;;;2.30;;
20972;SDS011;10645;52.370;13.314;2023-06-26T10:29:55;4.40;;;3.13;;
20972;SDS011;10645;52.370;13.314;2023-06-26T10:32:25;2.72;;;2.22;;
20972;SDS011;10645;52.370;13.314;2023-06-26T10:34:52;1.83;;;1.73;;
20972;SDS011;10645;52.370;13.314;2023-06-26T10:37:19;2.15;;;1.90;;
20972;SDS011;10645;52.370;13.314;2023-06-26T10:39:45;2.58;;;2.38;;
20972;SDS011;10645;52.370;13.314;2023-06-26T10:42:16;2.40;;;2.20;;
20972;SDS011;10645;52.370;13.314;2023-06-26T10:44:45;2.55;;;2.35;;
20972;SDS011;10645;52.370;13.314;2023-06-26T10:47:13;2.33;;;2.13;;
20972;SDS011;10645;52.370;13.314;2023-06-26T10:49:56;2.30;;;2.10;;
20972;SDS011;10645;52.370;13.314;2023-06-26T10:52:22;3.17;;;2.47;;
20972;SDS011;10645;52.370;13.314;2023-06-26T10:54:51;2.28;;;2.10;;
20972;SDS011;10645;52.370;13.314;2023-06-26T10:57:23;2.67;;;2.53;;
20972;SDS011;10645;52.370;13.314;2023-06-26T11:00:07;2.33;;;2.20;;
20972;SDS011;10645;52.370;13.314;2023-06-26T11:02:49;2.95;;;2.50;;
20972;SDS011;10645;52.370;13.314;2023-06-26T11:05:23;2.45;;;2.35;;
20972;SDS011;10645;52.370;13.314;2023-06-26T11:08:06;2.35;;;2.25;;
20972;SDS011;10645;52.370;13.314;2023-06-26T11:10:53;3.15;;;2.85;;
20972;SDS011;10645;52.370;13.314;2023-06-26T11:13:21;3.22;;;2.92;;
20972;SDS011;10645;52.370;13.314;2023-06-26T11:15:47;4.18;;;2.10;;
20972;SDS011;10645;52.370;13.314;2023-06-26T11:18:16;2.30;;;2.10;;
20972;SDS011;10645;52.370;13.314;2023-06-26T11:20:42;2.80;;;2.60;;
20972;SDS011;10645;52.370;13.314;2023-06-26T11:23:08;2.47;;;2.28;;
20972;SDS011;10645;52.370;13.314;2023-06-26T11:25:36;2.67;;;2.47;;
20972;SDS011;10645;52.370;13.314;2023-06-26T11:28:03;2.55;;;2.35;;
20972;SDS011;10645;52.370;13.314;2023-06-26T11:30:30;3.45;;;2.55;;
20972;SDS011;10645;52.370;13.314;2023-06-26T11:33:03;2.58;;;2.30;;
20972;SDS011;10645;52.370;13.314;2023-06-26T11:35:33;3.03;;;2.83;;
20972;SDS011;10645;52.370;13.314;2023-06-26T11:38:00;2.67;;;2.47;;
20972;SDS011;10645;52.370;13.314;2023-06-26T11:40:33;3.05;;;2.85;;
20972;SDS011;10645;52.370;13.314;2023-06-26T11:43:01;2.38;;;2.17;;
20972;SDS011;10645;52.370;13.314;2023-06-26T11:45:29;2.53;;;2.33;;
20972;SDS011;10645;52.370;13.314;2023-06-26T11:47:58;2.63;;;2.42;;
20972;SDS011;10645;52.370;13.314;2023-06-26T11:50:25;3.65;;;2.88;;
20972;SDS011;10645;52.370;13.314;2023-06-26T11:52:53;3.00;;;2.78;;
20972;SDS011;10645;52.370;13.314;2023-06-26T11:55:20;2.33;;;2.13;;
20972;SDS011;10645;52.370;13.314;2023-06-26T11:57:49;2.88;;;2.53;;
20972;SDS011;10645;52.370;13.314;2023-06-26T12:00:18;2.97;;;2.78;;
20972;SDS011;10645;52.370;13.314;2023-06-26T12:02:45;2.38;;;2.28;;
20972;SDS011;10645;52.370;13.314;2023-06-26T12:05:12;3.40;;;3.20;;
20972;SDS011;10645;52.370;13.314;2023-06-26T12:07:43;3.03;;;2.80;;
20972;SDS011;10645;52.370;13.314;2023-06-26T12:10:11;3.08;;;2.88;;
20972;SDS011;10645;52.370;13.314;2023-06-26T12:12:39;3.88;;;3.45;;
20972;SDS011;10645;52.370;13.314;2023-06-26T12:15:06;2.88;;;2.47;;
20972;SDS011;10645;52.370;13.314;2023-06-26T12:17:36;3.08;;;2.80;;
20972;SDS011;10645;52.370;13.314;2023-06-26T12:20:04;3.83;;;2.83;;
20972;SDS011;10645;52.370;13.314;2023-06-26T12:22:34;3.45;;;3.15;;
20972;SDS011;10645;52.370;13.314;2023-06-26T12:25:01;5.72;;;3.80;;
20972;SDS011;10645;52.370;13.314;2023-06-26T12:27:27;2.92;;;2.72;;
20972;SDS011;10645;52.370;13.314;2023-06-26T12:29:54;2.80;;;2.60;;
20972;SDS011;10645;52.370;13.314;2023-06-26T12:32:23;3.88;;;3.17;;
20972;SDS011;10645;52.370;13.314;2023-06-26T12:34:51;3.88;;;3.47;;
20972;SDS011;10645;52.370;13.314;2023-06-26T12:37:18;3.45;;;2.80;;
20972;SDS011;10645;52.370;13.314;2023-06-26T12:39:45;2.85;;;2.60;;
20972;SDS011;10645;52.370;13.314;2023-06-26T12:42:21;3.55;;;3.25;;
20972;SDS011;10645;52.370;13.314;2023-06-26T12:44:49;3.78;;;3.47;;
20972;SDS011;10645;52.370;13.314;2023-06-26T12:47:16;3.78;;;3.47;;
20972;SDS011;10645;52.370;13.314;2023-06-26T12:49:44;4.97;;;3.72;;
20972;SDS011;10645;52.370;13.314;2023-06-26T12:52:12;2.92;;;2.72;;
20972;SDS011;10645;52.370;13.314;2023-06-26T12:54:39;3.00;;;2.80;;
20972;SDS011;10645;52.370;13.314;2023-06-26T12:57:06;3.50;;;3.20;;
20972;SDS011;10645;52.370;13.314;2023-06-26T12:59:34;4.00;;;3.67;;
20972;SDS011;10645;52.370;13.314;2023-06-26T13:02:01;4.00;;;3.70;;
20972;SDS011;10645;52.370;13.314;2023-06-26T13:04:28;3.58;;;3.28;;
20972;SDS011;10645;52.370;13.314;2023-06-26T13:06:54;3.55;;;3.30;;
20972;SDS011;10645;52.370;13.314;2023-06-26T13:09:21;3.97;;;3.60;;
20972;SDS011;10645;52.370;13.314;2023-06-26T13:11:49;3.53;;;2.90;;
20972;SDS011;10645;52.370;13.314;2023-06-26T13:14:15;4.05;;;3.53;;
20972;SDS011;10645;52.370;13.314;2023-06-26T13:16:41;3.25;;;2.95;;
20972;SDS011;10645;52.370;13.314;2023-06-26T13:19:07;2.88;;;2.67;;
20972;SDS011;10645;52.370;13.314;2023-06-26T13:21:34;3.78;;;3.50;;
20972;SDS011;10645;52.370;13.314;2023-06-26T13:24:00;3.83;;;3.53;;
20972;SDS011;10645;52.370;13.314;2023-06-26T13:26:27;3.30;;;3.10;;
20972;SDS011;10645;52.370;13.314;2023-06-26T13:28:54;4.55;;;4.15;;
20972;SDS011;10645;52.370;13.314;2023-06-26T13:31:20;2.88;;;2.67;;
20972;SDS011;10645;52.370;13.314;2023-06-26T13:33:47;3.25;;;2.97;;
20972;SDS011;10645;52.370;13.314;2023-06-26T13:36:17;3.50;;;2.63;;
20972;SDS011;10645;52.370;13.314;2023-06-26T13:38:44;4.05;;;3.10;;
20972;SDS011;10645;52.370;13.314;2023-06-26T13:41:11;4.18;;;3.25;;
20972;SDS011;10645;52.370;13.314;2023-06-26T13:43:37;3.17;;;2.95;;
20972;SDS011;10645;52.370;13.314;2023-06-26T13:46:03;3.80;;;3.58;;
20972;SDS011;10645;52.370;13.314;2023-06-26T13:48:29;3.15;;;2.95;;
20972;SDS011;10645;52.370;13.314;2023-06-26T13:50:55;3.95;;;3.65;;
20972;SDS011;10645;52.370;13.314;2023-06-26T13:53:22;2.80;;;2.03;;
20972;SDS011;10645;52.370;13.314;2023-06-26T13:55:48;5.80;;;4.88;;
20972;SDS011;10645;52.370;13.314;2023-06-26T13:58:14;3.75;;;3.40;;
20972;SDS011;10645;52.370;13.314;2023-06-26T14:00:40;3.28;;;2.90;;
20972;SDS011;10645;52.370;13.314;2023-06-26T14:03:06;3.83;;;3.20;;
20972;SDS011;10645;52.370;13.314;2023-06-26T14:05:33;5.32;;;3.45;;
20972;SDS011;10645;52.370;13.314;2023-06-26T14:08:01;3.30;;;2.88;;
20972;SDS011;10645;52.370;13.314;2023-06-26T14:10:29;4.05;;;3.75;;
20972;SDS011;10645;52.370;13.314;2023-06-26T14:12:56;4.32;;;3.55;;
20972;SDS011;10645;52.370;13.314;2023-06-26T14:15:22;3.13;;;2.92;;
20972;SDS011;10645;52.370;13.314;2023-06-26T14:17:48;3.20;;;2.90;;
20972;SDS011;10645;52.370;13.314;2023-06-26T14:20:15;3.55;;;2.78;;
20972;SDS011;10645;52.370;13.314;2023-06-26T14:22:42;2.90;;;2.70;;
20972;SDS011;10645;52.370;13.314;2023-06-26T14:25:09;9.18;;;3.55;;
20972;SDS011;10645;52.370;13.314;2023-06-26T14:27:36;3.55;;;3.25;;
20972;SDS011;10645;52.370;13.314;2023-06-26T14:30:03;9.27;;;4.22;;
20972;SDS011;10645;52.370;13.314;2023-06-26T14:32:29;4.68;;;3.45;;
20972;SDS011;10645;52.370;13.314;2023-06-26T14:34:57;4.93;;;2.75;;